sensor_id;sensor_type;location;lat;lon;timestamp;P1;durP1;ratioP1;P2;durP2;ratioP2
27746;SDS011;15138;51.012;4.692;2023-05-20T00:01:23;10.80;;;3.10;;
27746;SDS011;15138;51.012;4.692;2023-05-20T00:03:51;6.88;;;2.90;;
27746;SDS011;15138;51.012;4.692;2023-05-20T00:06:20;12.25;;;2.85;;
27746;SDS011;15138;51.012;4.692;2023-05-20T00:08:50;7.07;;;2.58;;
27746;SDS011;15138;51.012;4.692;2023-05-20T00:11:18;4.75;;;2.58;;
27746;SDS011;15138;51.012;4.692;2023-05-20T00:13:47;7.57;;;2.63;;
27746;SDS011;15138;51.012;4.692;2023-05-20T00:16:16;6.05;;;2.92;;
27746;SDS011;15138;51.012;4.692;2023-05-20T00:18:45;4.15;;;2.38;;
27746;SDS011;15138;51.012;4.692;2023-05-20T00:21:13;11.00;;;3.28;;
27746;SDS011;15138;51.012;4.692;2023-05-20T00:23:41;6.18;;;2.85;;
27746;SDS011;15138;51.012;4.692;2023-05-20T00:26:11;5.57;;;3.17;;
27746;SDS011;15138;51.012;4.692;2023-05-20T00:28:39;5.68;;;2.67;;
27746;SDS011;15138;51.012;4.692;2023-05-20T00:31:08;5.80;;;2.60;;
27746;SDS011;15138;51.012;4.692;2023-05-20T00:33:36;7.20;;;2.63;;
27746;SDS011;15138;51.012;4.692;2023-05-20T00:36:05;4.78;;;2.40;;
27746;SDS011;15138;51.012;4.692;2023-05-20T00:38:33;7.25;;;2.22;;
27746;SDS011;15138;51.012;4.692;2023-05-20T00:41:01;7.95;;;2.75;;
27746;SDS011;15138;51.012;4.692;2023-05-20T00:43:31;6.65;;;2.50;;
27746;SDS011;15138;51.012;4.692;2023-05-20T00:45:59;6.13;;;2.55;;
27746;SDS011;15138;51.012;4.692;2023-05-20T00:48:28;7.20;;;2.28;;
27746;SDS011;15138;51.012;4.692;2023-05-20T00:51:04;5.03;;;2.50;;
27746;SDS011;15138;51.012;4.692;2023-05-20T00:53:33;5.45;;;2.10;;
27746;SDS011;15138;51.012;4.692;2023-05-20T00:56:02;5.28;;;2.30;;
27746;SDS011;15138;51.012;4.692;2023-05-20T00:58:32;8.15;;;2.50;;
27746;SDS011;15138;51.012;4.692;2023-05-20T01:01:02;4.68;;;2.00;;
27746;SDS011;15138;51.012;4.692;2023-05-20T01:03:30;4.40;;;1.80;;
27746;SDS011;15138;51.012;4.692;2023-05-20T01:05:59;6.47;;;2.35;;
27746;SDS011;15138;51.012;4.692;2023-05-20T01:08:28;4.95;;;2.28;;
27746;SDS011;15138;51.012;4.692;2023-05-20T01:10:58;5.53;;;2.35;;
27746;SDS011;15138;51.012;4.692;2023-05-20T01:13:31;6.13;;;2.67;;
27746;SDS011;15138;51.012;4.692;2023-05-20T01:16:01;7.38;;;2.05;;
27746;SDS011;15138;51.012;4.692;2023-05-20T01:18:31;4.90;;;2.40;;
27746;SDS011;15138;51.012;4.692;2023-05-20T01:21:00;8.70;;;2.63;;
27746;SDS011;15138;51.012;4.692;2023-05-20T01:23:36;4.63;;;2.08;;
27746;SDS011;15138;51.012;4.692;2023-05-20T01:26:06;8.38;;;2.35;;
27746;SDS011;15138;51.012;4.692;2023-05-20T01:28:35;4.78;;;2.53;;
27746;SDS011;15138;51.012;4.692;2023-05-20T01:31:05;10.23;;;2.30;;
27746;SDS011;15138;51.012;4.692;2023-05-20T01:33:35;9.38;;;2.47;;
27746;SDS011;15138;51.012;4.692;2023-05-20T01:36:04;7.82;;;2.53;;
27746;SDS011;15138;51.012;4.692;2023-05-20T01:38:35;4.90;;;1.90;;
27746;SDS011;15138;51.012;4.692;2023-05-20T01:41:03;7.40;;;2.35;;
27746;SDS011;15138;51.012;4.692;2023-05-20T01:43:32;7.30;;;2.30;;
27746;SDS011;15138;51.012;4.692;2023-05-20T01:46:04;8.85;;;2.90;;
27746;SDS011;15138;51.012;4.692;2023-05-20T01:48:33;4.20;;;2.20;;
27746;SDS011;15138;51.012;4.692;2023-05-20T01:51:01;4.38;;;2.15;;
27746;SDS011;15138;51.012;4.692;2023-05-20T01:53:30;4.45;;;2.13;;
27746;SDS011;15138;51.012;4.692;2023-05-20T01:55:59;4.85;;;2.08;;
27746;SDS011;15138;51.012;4.692;2023-05-20T01:58:28;6.95;;;2.53;;
27746;SDS011;15138;51.012;4.692;2023-05-20T02:00:56;4.13;;;2.40;;
27746;SDS011;15138;51.012;4.692;2023-05-20T02:03:25;5.63;;;2.63;;
27746;SDS011;15138;51.012;4.692;2023-05-20T02:05:53;6.10;;;2.20;;
27746;SDS011;15138;51.012;4.692;2023-05-20T02:08:22;9.38;;;2.80;;
27746;SDS011;15138;51.012;4.692;2023-05-20T02:10:50;9.60;;;2.72;;
27746;SDS011;15138;51.012;4.692;2023-05-20T02:13:20;7.07;;;2.63;;
27746;SDS011;15138;51.012;4.692;2023-05-20T02:15:49;4.85;;;2.15;;
27746;SDS011;15138;51.012;4.692;2023-05-20T02:18:18;9.98;;;2.95;;
27746;SDS011;15138;51.012;4.692;2023-05-20T02:20:46;6.35;;;2.38;;
27746;SDS011;15138;51.012;4.692;2023-05-20T02:23:15;5.95;;;2.20;;
27746;SDS011;15138;51.012;4.692;2023-05-20T02:25:44;8.73;;;3.20;;
27746;SDS011;15138;51.012;4.692;2023-05-20T02:28:12;6.60;;;2.75;;
27746;SDS011;15138;51.012;4.692;2023-05-20T02:30:43;7.10;;;2.70;;
27746;SDS011;15138;51.012;4.692;2023-05-20T02:33:12;4.00;;;2.25;;
27746;SDS011;15138;51.012;4.692;2023-05-20T02:35:40;3.75;;;2.35;;
27746;SDS011;15138;51.012;4.692;2023-05-20T02:38:09;12.00;;;3.47;;
27746;SDS011;15138;51.012;4.692;2023-05-20T02:40:37;7.40;;;3.20;;
27746;SDS011;15138;51.012;4.692;2023-05-20T02:43:06;5.68;;;2.53;;
27746;SDS011;15138;51.012;4.692;2023-05-20T02:45:34;5.63;;;2.33;;
27746;SDS011;15138;51.012;4.692;2023-05-20T02:48:04;6.25;;;2.50;;
27746;SDS011;15138;51.012;4.692;2023-05-20T02:50:33;11.50;;;3.15;;
27746;SDS011;15138;51.012;4.692;2023-05-20T02:53:01;5.95;;;2.65;;
27746;SDS011;15138;51.012;4.692;2023-05-20T02:55:32;7.00;;;2.80;;
27746;SDS011;15138;51.012;4.692;2023-05-20T02:58:01;6.68;;;2.70;;
27746;SDS011;15138;51.012;4.692;2023-05-20T03:00:30;7.35;;;2.17;;
27746;SDS011;15138;51.012;4.692;2023-05-20T03:03:00;5.03;;;2.28;;
27746;SDS011;15138;51.012;4.692;2023-05-20T03:05:30;5.13;;;2.65;;
27746;SDS011;15138;51.012;4.692;2023-05-20T03:08:05;7.22;;;2.25;;
27746;SDS011;15138;51.012;4.692;2023-05-20T03:10:34;8.65;;;3.15;;
27746;SDS011;15138;51.012;4.692;2023-05-20T03:13:03;6.60;;;2.78;;
27746;SDS011;15138;51.012;4.692;2023-05-20T03:15:34;8.23;;;3.33;;
27746;SDS011;15138;51.012;4.692;2023-05-20T03:18:03;8.73;;;2.80;;
27746;SDS011;15138;51.012;4.692;2023-05-20T03:20:33;6.97;;;2.70;;
27746;SDS011;15138;51.012;4.692;2023-05-20T03:23:03;6.28;;;2.72;;
27746;SDS011;15138;51.012;4.692;2023-05-20T03:25:32;12.52;;;3.05;;
27746;SDS011;15138;51.012;4.692;2023-05-20T03:28:01;5.95;;;2.60;;
27746;SDS011;15138;51.012;4.692;2023-05-20T03:30:29;4.53;;;2.50;;
27746;SDS011;15138;51.012;4.692;2023-05-20T03:32:58;6.25;;;2.88;;
27746;SDS011;15138;51.012;4.692;2023-05-20T03:35:28;7.53;;;2.45;;
27746;SDS011;15138;51.012;4.692;2023-05-20T03:37:58;7.75;;;2.83;;
27746;SDS011;15138;51.012;4.692;2023-05-20T03:40:27;7.40;;;2.45;;
27746;SDS011;15138;51.012;4.692;2023-05-20T03:42:55;4.97;;;2.50;;
27746;SDS011;15138;51.012;4.692;2023-05-20T03:45:24;6.60;;;2.70;;
27746;SDS011;15138;51.012;4.692;2023-05-20T03:47:52;6.30;;;2.90;;
27746;SDS011;15138;51.012;4.692;2023-05-20T03:50:21;6.63;;;2.63;;
27746;SDS011;15138;51.012;4.692;2023-05-20T03:52:49;9.20;;;3.10;;
27746;SDS011;15138;51.012;4.692;2023-05-20T03:55:19;8.85;;;3.45;;
27746;SDS011;15138;51.012;4.692;2023-05-20T03:57:47;9.43;;;2.75;;
27746;SDS011;15138;51.012;4.692;2023-05-20T04:00:16;9.60;;;2.78;;
27746;SDS011;15138;51.012;4.692;2023-05-20T04:02:44;7.63;;;3.08;;
27746;SDS011;15138;51.012;4.692;2023-05-20T04:05:13;7.85;;;3.13;;
27746;SDS011;15138;51.012;4.692;2023-05-20T04:07:42;4.95;;;2.28;;
27746;SDS011;15138;51.012;4.692;2023-05-20T04:10:10;9.02;;;3.25;;
27746;SDS011;15138;51.012;4.692;2023-05-20T04:12:40;9.50;;;2.95;;
27746;SDS011;15138;51.012;4.692;2023-05-20T04:15:09;8.60;;;3.17;;
27746;SDS011;15138;51.012;4.692;2023-05-20T04:17:38;12.63;;;3.90;;
27746;SDS011;15138;51.012;4.692;2023-05-20T04:20:07;5.63;;;2.63;;
27746;SDS011;15138;51.012;4.692;2023-05-20T04:22:36;6.20;;;2.83;;
27746;SDS011;15138;51.012;4.692;2023-05-20T04:25:06;8.93;;;3.30;;
27746;SDS011;15138;51.012;4.692;2023-05-20T04:27:35;8.05;;;2.80;;
27746;SDS011;15138;51.012;4.692;2023-05-20T04:30:06;7.40;;;3.28;;
27746;SDS011;15138;51.012;4.692;2023-05-20T04:32:35;8.48;;;3.10;;
27746;SDS011;15138;51.012;4.692;2023-05-20T04:35:04;10.48;;;3.42;;
27746;SDS011;15138;51.012;4.692;2023-05-20T04:37:37;12.57;;;3.80;;
27746;SDS011;15138;51.012;4.692;2023-05-20T04:40:08;9.70;;;3.22;;
27746;SDS011;15138;51.012;4.692;2023-05-20T04:42:37;8.95;;;3.13;;
27746;SDS011;15138;51.012;4.692;2023-05-20T04:45:08;9.20;;;3.30;;
27746;SDS011;15138;51.012;4.692;2023-05-20T04:47:37;8.80;;;2.97;;
27746;SDS011;15138;51.012;4.692;2023-05-20T04:50:07;10.98;;;3.60;;
27746;SDS011;15138;51.012;4.692;2023-05-20T04:52:37;10.63;;;3.97;;
27746;SDS011;15138;51.012;4.692;2023-05-20T04:55:07;11.48;;;4.22;;
27746;SDS011;15138;51.012;4.692;2023-05-20T04:57:36;9.88;;;3.10;;
27746;SDS011;15138;51.012;4.692;2023-05-20T05:00:10;6.80;;;2.72;;
27746;SDS011;15138;51.012;4.692;2023-05-20T05:02:39;12.18;;;3.53;;
27746;SDS011;15138;51.012;4.692;2023-05-20T05:05:07;10.35;;;4.18;;
27746;SDS011;15138;51.012;4.692;2023-05-20T05:07:36;7.38;;;3.15;;
27746;SDS011;15138;51.012;4.692;2023-05-20T05:10:04;5.35;;;2.85;;
27746;SDS011;15138;51.012;4.692;2023-05-20T05:12:33;8.40;;;4.03;;
27746;SDS011;15138;51.012;4.692;2023-05-20T05:15:02;8.77;;;3.03;;
27746;SDS011;15138;51.012;4.692;2023-05-20T05:17:31;14.18;;;4.07;;
27746;SDS011;15138;51.012;4.692;2023-05-20T05:20:00;11.30;;;4.47;;
27746;SDS011;15138;51.012;4.692;2023-05-20T05:22:28;6.63;;;3.90;;
27746;SDS011;15138;51.012;4.692;2023-05-20T05:24:57;8.35;;;3.80;;
27746;SDS011;15138;51.012;4.692;2023-05-20T05:27:25;14.43;;;6.70;;
27746;SDS011;15138;51.012;4.692;2023-05-20T05:29:54;14.82;;;7.53;;
27746;SDS011;15138;51.012;4.692;2023-05-20T05:32:22;6.63;;;3.88;;
27746;SDS011;15138;51.012;4.692;2023-05-20T05:34:52;11.52;;;6.45;;
27746;SDS011;15138;51.012;4.692;2023-05-20T05:37:21;14.30;;;6.10;;
27746;SDS011;15138;51.012;4.692;2023-05-20T05:39:49;13.50;;;5.10;;
27746;SDS011;15138;51.012;4.692;2023-05-20T05:42:18;17.88;;;5.20;;
27746;SDS011;15138;51.012;4.692;2023-05-20T05:44:46;7.03;;;3.15;;
27746;SDS011;15138;51.012;4.692;2023-05-20T05:47:15;7.72;;;3.80;;
27746;SDS011;15138;51.012;4.692;2023-05-20T05:49:43;10.20;;;4.13;;
27746;SDS011;15138;51.012;4.692;2023-05-20T05:52:13;11.25;;;5.10;;
27746;SDS011;15138;51.012;4.692;2023-05-20T05:54:41;9.25;;;3.63;;
27746;SDS011;15138;51.012;4.692;2023-05-20T05:57:10;11.20;;;4.57;;
27746;SDS011;15138;51.012;4.692;2023-05-20T05:59:38;13.73;;;4.53;;
27746;SDS011;15138;51.012;4.692;2023-05-20T06:02:07;14.77;;;4.72;;
27746;SDS011;15138;51.012;4.692;2023-05-20T06:04:36;11.25;;;4.10;;
27746;SDS011;15138;51.012;4.692;2023-05-20T06:07:04;9.35;;;4.10;;
27746;SDS011;15138;51.012;4.692;2023-05-20T06:09:34;9.25;;;3.95;;
27746;SDS011;15138;51.012;4.692;2023-05-20T06:12:03;12.55;;;4.57;;
27746;SDS011;15138;51.012;4.692;2023-05-20T06:14:32;9.07;;;4.35;;
27746;SDS011;15138;51.012;4.692;2023-05-20T06:17:00;6.93;;;3.47;;
27746;SDS011;15138;51.012;4.692;2023-05-20T06:19:29;8.38;;;3.97;;
27746;SDS011;15138;51.012;4.692;2023-05-20T06:21:57;8.60;;;3.20;;
27746;SDS011;15138;51.012;4.692;2023-05-20T06:24:26;10.65;;;5.13;;
27746;SDS011;15138;51.012;4.692;2023-05-20T06:26:56;11.30;;;4.03;;
27746;SDS011;15138;51.012;4.692;2023-05-20T06:29:24;9.95;;;4.18;;
27746;SDS011;15138;51.012;4.692;2023-05-20T06:31:53;9.57;;;4.22;;
27746;SDS011;15138;51.012;4.692;2023-05-20T06:34:21;9.80;;;3.25;;
27746;SDS011;15138;51.012;4.692;2023-05-20T06:36:49;7.25;;;3.72;;
27746;SDS011;15138;51.012;4.692;2023-05-20T06:39:18;7.40;;;3.75;;
27746;SDS011;15138;51.012;4.692;2023-05-20T06:41:47;8.20;;;3.67;;
27746;SDS011;15138;51.012;4.692;2023-05-20T06:44:18;10.02;;;3.83;;
27746;SDS011;15138;51.012;4.692;2023-05-20T06:46:47;22.48;;;5.15;;
27746;SDS011;15138;51.012;4.692;2023-05-20T06:49:16;8.95;;;4.53;;
27746;SDS011;15138;51.012;4.692;2023-05-20T06:51:44;7.30;;;3.92;;
27746;SDS011;15138;51.012;4.692;2023-05-20T06:54:12;13.48;;;4.70;;
27746;SDS011;15138;51.012;4.692;2023-05-20T06:56:41;6.88;;;3.50;;
27746;SDS011;15138;51.012;4.692;2023-05-20T06:59:09;9.82;;;3.70;;
27746;SDS011;15138;51.012;4.692;2023-05-20T07:01:39;7.18;;;3.80;;
27746;SDS011;15138;51.012;4.692;2023-05-20T07:04:07;9.57;;;3.20;;
27746;SDS011;15138;51.012;4.692;2023-05-20T07:06:36;8.85;;;3.53;;
27746;SDS011;15138;51.012;4.692;2023-05-20T07:09:04;6.75;;;3.60;;
27746;SDS011;15138;51.012;4.692;2023-05-20T07:11:33;7.80;;;3.17;;
27746;SDS011;15138;51.012;4.692;2023-05-20T07:14:01;9.60;;;3.65;;
27746;SDS011;15138;51.012;4.692;2023-05-20T07:16:30;6.68;;;2.92;;
27746;SDS011;15138;51.012;4.692;2023-05-20T07:19:02;10.38;;;3.78;;
27746;SDS011;15138;51.012;4.692;2023-05-20T07:21:30;6.95;;;3.30;;
27746;SDS011;15138;51.012;4.692;2023-05-20T07:23:59;6.88;;;3.38;;
27746;SDS011;15138;51.012;4.692;2023-05-20T07:26:27;8.65;;;2.85;;
27746;SDS011;15138;51.012;4.692;2023-05-20T07:28:58;8.93;;;3.53;;
27746;SDS011;15138;51.012;4.692;2023-05-20T07:31:27;5.57;;;3.10;;
27746;SDS011;15138;51.012;4.692;2023-05-20T07:33:55;9.45;;;3.35;;
27746;SDS011;15138;51.012;4.692;2023-05-20T07:36:26;6.43;;;3.10;;
27746;SDS011;15138;51.012;4.692;2023-05-20T07:38:55;8.15;;;3.10;;
27746;SDS011;15138;51.012;4.692;2023-05-20T07:41:29;5.05;;;1.83;;
27746;SDS011;15138;51.012;4.692;2023-05-20T07:43:57;4.55;;;1.75;;
27746;SDS011;15138;51.012;4.692;2023-05-20T07:46:26;8.45;;;3.30;;
27746;SDS011;15138;51.012;4.692;2023-05-20T07:48:54;8.45;;;3.45;;
27746;SDS011;15138;51.012;4.692;2023-05-20T07:51:23;4.10;;;2.42;;
27746;SDS011;15138;51.012;4.692;2023-05-20T07:53:52;4.70;;;2.90;;
27746;SDS011;15138;51.012;4.692;2023-05-20T07:56:20;7.28;;;3.95;;
27746;SDS011;15138;51.012;4.692;2023-05-20T07:58:51;5.68;;;2.75;;
27746;SDS011;15138;51.012;4.692;2023-05-20T08:01:19;9.20;;;4.00;;
27746;SDS011;15138;51.012;4.692;2023-05-20T08:03:48;9.82;;;2.63;;
27746;SDS011;15138;51.012;4.692;2023-05-20T08:06:16;4.85;;;3.00;;
27746;SDS011;15138;51.012;4.692;2023-05-20T08:08:46;6.85;;;3.13;;
27746;SDS011;15138;51.012;4.692;2023-05-20T08:11:16;4.85;;;2.95;;
27746;SDS011;15138;51.012;4.692;2023-05-20T08:13:44;9.32;;;2.58;;
27746;SDS011;15138;51.012;4.692;2023-05-20T08:16:13;10.27;;;3.20;;
27746;SDS011;15138;51.012;4.692;2023-05-20T08:18:41;5.65;;;2.85;;
27746;SDS011;15138;51.012;4.692;2023-05-20T08:21:09;10.40;;;3.00;;
27746;SDS011;15138;51.012;4.692;2023-05-20T08:23:39;18.23;;;2.97;;
27746;SDS011;15138;51.012;4.692;2023-05-20T08:26:07;9.93;;;2.88;;
27746;SDS011;15138;51.012;4.692;2023-05-20T08:28:37;19.60;;;4.35;;
27746;SDS011;15138;51.012;4.692;2023-05-20T08:31:05;5.20;;;2.83;;
27746;SDS011;15138;51.012;4.692;2023-05-20T08:33:34;4.07;;;1.80;;
27746;SDS011;15138;51.012;4.692;2023-05-20T08:36:02;12.93;;;2.60;;
27746;SDS011;15138;51.012;4.692;2023-05-20T08:38:31;8.10;;;2.80;;
27746;SDS011;15138;51.012;4.692;2023-05-20T08:41:00;7.50;;;2.85;;
27746;SDS011;15138;51.012;4.692;2023-05-20T08:43:29;7.57;;;1.83;;
27746;SDS011;15138;51.012;4.692;2023-05-20T08:45:59;4.30;;;2.17;;
27746;SDS011;15138;51.012;4.692;2023-05-20T08:48:31;7.65;;;2.53;;
27746;SDS011;15138;51.012;4.692;2023-05-20T08:51:02;7.00;;;2.88;;
27746;SDS011;15138;51.012;4.692;2023-05-20T08:53:30;5.25;;;2.50;;
27746;SDS011;15138;51.012;4.692;2023-05-20T08:55:59;3.38;;;2.20;;
27746;SDS011;15138;51.012;4.692;2023-05-20T08:58:29;6.72;;;2.45;;
27746;SDS011;15138;51.012;4.692;2023-05-20T09:00:58;5.05;;;1.70;;
27746;SDS011;15138;51.012;4.692;2023-05-20T09:03:27;6.72;;;2.55;;
27746;SDS011;15138;51.012;4.692;2023-05-20T09:06:02;5.53;;;2.28;;
27746;SDS011;15138;51.012;4.692;2023-05-20T09:08:31;6.10;;;2.42;;
27746;SDS011;15138;51.012;4.692;2023-05-20T09:11:00;3.97;;;2.50;;
27746;SDS011;15138;51.012;4.692;2023-05-20T09:13:29;8.82;;;3.05;;
27746;SDS011;15138;51.012;4.692;2023-05-20T09:16:00;6.25;;;2.33;;
27746;SDS011;15138;51.012;4.692;2023-05-20T09:18:29;5.80;;;1.80;;
27746;SDS011;15138;51.012;4.692;2023-05-20T09:20:57;8.18;;;2.00;;
27746;SDS011;15138;51.012;4.692;2023-05-20T09:23:32;3.60;;;2.08;;
27746;SDS011;15138;51.012;4.692;2023-05-20T09:26:00;5.30;;;2.40;;
27746;SDS011;15138;51.012;4.692;2023-05-20T09:28:28;5.53;;;2.28;;
27746;SDS011;15138;51.012;4.692;2023-05-20T09:30:57;3.75;;;2.08;;
27746;SDS011;15138;51.012;4.692;2023-05-20T09:33:27;4.97;;;2.05;;
27746;SDS011;15138;51.012;4.692;2023-05-20T09:36:03;6.03;;;2.53;;
27746;SDS011;15138;51.012;4.692;2023-05-20T09:38:32;8.07;;;2.45;;
27746;SDS011;15138;51.012;4.692;2023-05-20T09:41:03;7.20;;;2.75;;
27746;SDS011;15138;51.012;4.692;2023-05-20T09:43:34;7.68;;;2.63;;
27746;SDS011;15138;51.012;4.692;2023-05-20T09:46:03;8.73;;;2.70;;
27746;SDS011;15138;51.012;4.692;2023-05-20T09:48:33;9.25;;;2.75;;
27746;SDS011;15138;51.012;4.692;2023-05-20T09:51:03;10.18;;;2.25;;
27746;SDS011;15138;51.012;4.692;2023-05-20T09:53:32;4.28;;;1.92;;
27746;SDS011;15138;51.012;4.692;2023-05-20T09:56:00;6.40;;;2.67;;
27746;SDS011;15138;51.012;4.692;2023-05-20T09:58:29;6.22;;;2.15;;
27746;SDS011;15138;51.012;4.692;2023-05-20T10:00:58;6.40;;;2.63;;
27746;SDS011;15138;51.012;4.692;2023-05-20T10:03:27;6.28;;;2.40;;
27746;SDS011;15138;51.012;4.692;2023-05-20T10:06:01;4.47;;;2.25;;
27746;SDS011;15138;51.012;4.692;2023-05-20T10:08:45;5.60;;;2.63;;
27746;SDS011;15138;51.012;4.692;2023-05-20T10:11:18;7.50;;;1.90;;
27746;SDS011;15138;51.012;4.692;2023-05-20T10:13:59;9.63;;;2.40;;
27746;SDS011;15138;51.012;4.692;2023-05-20T10:16:42;5.90;;;1.77;;
27746;SDS011;15138;51.012;4.692;2023-05-20T10:19:24;5.30;;;2.10;;
27746;SDS011;15138;51.012;4.692;2023-05-20T10:21:59;5.65;;;2.33;;
27746;SDS011;15138;51.012;4.692;2023-05-20T10:24:28;8.55;;;2.50;;
27746;SDS011;15138;51.012;4.692;2023-05-20T10:26:59;5.43;;;1.85;;
27746;SDS011;15138;51.012;4.692;2023-05-20T10:29:28;4.20;;;2.20;;
27746;SDS011;15138;51.012;4.692;2023-05-20T10:32:08;6.75;;;2.00;;
27746;SDS011;15138;51.012;4.692;2023-05-20T10:34:43;5.20;;;2.28;;
27746;SDS011;15138;51.012;4.692;2023-05-20T10:37:23;3.83;;;2.08;;
27746;SDS011;15138;51.012;4.692;2023-05-20T10:40:01;9.88;;;2.25;;
27746;SDS011;15138;51.012;4.692;2023-05-20T10:42:30;8.50;;;2.40;;
27746;SDS011;15138;51.012;4.692;2023-05-20T10:44:58;3.72;;;1.90;;
27746;SDS011;15138;51.012;4.692;2023-05-20T10:47:27;7.07;;;2.28;;
27746;SDS011;15138;51.012;4.692;2023-05-20T10:49:56;3.55;;;1.85;;
27746;SDS011;15138;51.012;4.692;2023-05-20T10:52:31;3.42;;;1.90;;
27746;SDS011;15138;51.012;4.692;2023-05-20T10:55:00;3.58;;;2.15;;
27746;SDS011;15138;51.012;4.692;2023-05-20T10:57:30;5.40;;;1.90;;
27746;SDS011;15138;51.012;4.692;2023-05-20T10:59:59;3.55;;;2.03;;
27746;SDS011;15138;51.012;4.692;2023-05-20T11:02:27;7.47;;;2.00;;
27746;SDS011;15138;51.012;4.692;2023-05-20T11:04:56;3.58;;;2.20;;
27746;SDS011;15138;51.012;4.692;2023-05-20T11:07:25;6.55;;;2.55;;
27746;SDS011;15138;51.012;4.692;2023-05-20T11:09:55;5.05;;;2.33;;
27746;SDS011;15138;51.012;4.692;2023-05-20T11:12:24;5.00;;;2.40;;
27746;SDS011;15138;51.012;4.692;2023-05-20T11:14:53;7.05;;;2.60;;
27746;SDS011;15138;51.012;4.692;2023-05-20T11:17:22;4.13;;;2.30;;
27746;SDS011;15138;51.012;4.692;2023-05-20T11:19:50;4.20;;;2.03;;
27746;SDS011;15138;51.012;4.692;2023-05-20T11:22:19;8.02;;;2.10;;
27746;SDS011;15138;51.012;4.692;2023-05-20T11:24:47;5.72;;;2.38;;
27746;SDS011;15138;51.012;4.692;2023-05-20T11:27:18;9.82;;;2.80;;
27746;SDS011;15138;51.012;4.692;2023-05-20T11:29:48;4.13;;;2.45;;
27746;SDS011;15138;51.012;4.692;2023-05-20T11:32:18;4.70;;;2.58;;
27746;SDS011;15138;51.012;4.692;2023-05-20T11:34:49;8.15;;;2.65;;
27746;SDS011;15138;51.012;4.692;2023-05-20T11:37:18;7.25;;;2.55;;
27746;SDS011;15138;51.012;4.692;2023-05-20T11:39:47;2.67;;;1.75;;
27746;SDS011;15138;51.012;4.692;2023-05-20T11:42:16;5.18;;;2.05;;
27746;SDS011;15138;51.012;4.692;2023-05-20T11:44:45;8.88;;;2.65;;
27746;SDS011;15138;51.012;4.692;2023-05-20T11:47:14;8.35;;;2.35;;
27746;SDS011;15138;51.012;4.692;2023-05-20T11:49:46;5.43;;;2.40;;
27746;SDS011;15138;51.012;4.692;2023-05-20T11:52:15;5.80;;;2.38;;
27746;SDS011;15138;51.012;4.692;2023-05-20T11:54:43;12.73;;;2.58;;
27746;SDS011;15138;51.012;4.692;2023-05-20T11:57:17;5.15;;;1.90;;
27746;SDS011;15138;51.012;4.692;2023-05-20T11:59:47;5.93;;;2.38;;
27746;SDS011;15138;51.012;4.692;2023-05-20T12:02:16;3.55;;;2.22;;
27746;SDS011;15138;51.012;4.692;2023-05-20T12:04:44;6.00;;;1.90;;
27746;SDS011;15138;51.012;4.692;2023-05-20T12:07:12;5.63;;;1.92;;
27746;SDS011;15138;51.012;4.692;2023-05-20T12:09:41;4.53;;;1.98;;
27746;SDS011;15138;51.012;4.692;2023-05-20T12:12:09;4.50;;;2.58;;
27746;SDS011;15138;51.012;4.692;2023-05-20T12:14:39;3.20;;;2.33;;
27746;SDS011;15138;51.012;4.692;2023-05-20T12:17:09;14.35;;;2.00;;
27746;SDS011;15138;51.012;4.692;2023-05-20T12:19:37;9.95;;;2.22;;
27746;SDS011;15138;51.012;4.692;2023-05-20T12:22:07;5.40;;;2.15;;
27746;SDS011;15138;51.012;4.692;2023-05-20T12:24:35;3.70;;;2.00;;
27746;SDS011;15138;51.012;4.692;2023-05-20T12:27:04;4.97;;;2.28;;
27746;SDS011;15138;51.012;4.692;2023-05-20T12:29:33;3.10;;;1.95;;
27746;SDS011;15138;51.012;4.692;2023-05-20T12:32:01;5.43;;;2.03;;
27746;SDS011;15138;51.012;4.692;2023-05-20T12:34:31;2.92;;;1.70;;
27746;SDS011;15138;51.012;4.692;2023-05-20T12:36:59;3.25;;;1.75;;
27746;SDS011;15138;51.012;4.692;2023-05-20T12:39:27;9.80;;;2.47;;
27746;SDS011;15138;51.012;4.692;2023-05-20T12:41:55;5.93;;;2.05;;
27746;SDS011;15138;51.012;4.692;2023-05-20T12:44:23;6.95;;;2.20;;
27746;SDS011;15138;51.012;4.692;2023-05-20T12:46:53;5.50;;;2.30;;
27746;SDS011;15138;51.012;4.692;2023-05-20T12:49:21;5.50;;;1.90;;
27746;SDS011;15138;51.012;4.692;2023-05-20T12:51:51;4.80;;;2.00;;
27746;SDS011;15138;51.012;4.692;2023-05-20T12:54:19;5.45;;;1.88;;
27746;SDS011;15138;51.012;4.692;2023-05-20T12:56:47;2.95;;;1.75;;
27746;SDS011;15138;51.012;4.692;2023-05-20T12:59:15;7.78;;;2.13;;
27746;SDS011;15138;51.012;4.692;2023-05-20T13:01:44;9.55;;;2.55;;
27746;SDS011;15138;51.012;4.692;2023-05-20T13:04:12;8.18;;;2.22;;
27746;SDS011;15138;51.012;4.692;2023-05-20T13:06:41;4.22;;;1.88;;
27746;SDS011;15138;51.012;4.692;2023-05-20T13:09:10;3.85;;;1.85;;
27746;SDS011;15138;51.012;4.692;2023-05-20T13:11:38;4.18;;;1.80;;
27746;SDS011;15138;51.012;4.692;2023-05-20T13:14:07;7.47;;;2.25;;
27746;SDS011;15138;51.012;4.692;2023-05-20T13:16:35;4.10;;;1.80;;
27746;SDS011;15138;51.012;4.692;2023-05-20T13:19:03;3.60;;;2.05;;
27746;SDS011;15138;51.012;4.692;2023-05-20T13:21:31;6.70;;;2.10;;
27746;SDS011;15138;51.012;4.692;2023-05-20T13:23:59;4.88;;;1.95;;
27746;SDS011;15138;51.012;4.692;2023-05-20T13:26:29;5.30;;;1.90;;
27746;SDS011;15138;51.012;4.692;2023-05-20T13:28:57;5.43;;;2.22;;
27746;SDS011;15138;51.012;4.692;2023-05-20T13:31:25;3.83;;;2.00;;
27746;SDS011;15138;51.012;4.692;2023-05-20T13:33:53;6.07;;;1.98;;
27746;SDS011;15138;51.012;4.692;2023-05-20T13:36:24;3.15;;;1.85;;
27746;SDS011;15138;51.012;4.692;2023-05-20T13:38:52;4.43;;;2.20;;
27746;SDS011;15138;51.012;4.692;2023-05-20T13:41:20;3.60;;;2.08;;
27746;SDS011;15138;51.012;4.692;2023-05-20T13:43:51;5.88;;;2.30;;
27746;SDS011;15138;51.012;4.692;2023-05-20T13:46:20;4.53;;;2.55;;
27746;SDS011;15138;51.012;4.692;2023-05-20T13:48:48;4.85;;;1.92;;
27746;SDS011;15138;51.012;4.692;2023-05-20T13:51:16;4.13;;;1.98;;
27746;SDS011;15138;51.012;4.692;2023-05-20T13:53:45;3.60;;;1.90;;
27746;SDS011;15138;51.012;4.692;2023-05-20T13:56:13;5.70;;;2.05;;
27746;SDS011;15138;51.012;4.692;2023-05-20T13:58:41;4.53;;;2.05;;
27746;SDS011;15138;51.012;4.692;2023-05-20T14:01:11;5.35;;;2.00;;
27746;SDS011;15138;51.012;4.692;2023-05-20T14:03:42;3.30;;;1.98;;
27746;SDS011;15138;51.012;4.692;2023-05-20T14:06:11;3.63;;;1.85;;
27746;SDS011;15138;51.012;4.692;2023-05-20T14:08:40;8.48;;;2.13;;
27746;SDS011;15138;51.012;4.692;2023-05-20T14:11:08;3.90;;;1.90;;
27746;SDS011;15138;51.012;4.692;2023-05-20T14:13:36;7.20;;;1.92;;
27746;SDS011;15138;51.012;4.692;2023-05-20T14:16:05;2.80;;;1.67;;
27746;SDS011;15138;51.012;4.692;2023-05-20T14:18:34;3.30;;;1.80;;
27746;SDS011;15138;51.012;4.692;2023-05-20T14:21:03;2.28;;;1.35;;
27746;SDS011;15138;51.012;4.692;2023-05-20T14:23:31;5.70;;;1.77;;
27746;SDS011;15138;51.012;4.692;2023-05-20T14:25:59;3.88;;;1.98;;
27746;SDS011;15138;51.012;4.692;2023-05-20T14:28:28;6.60;;;2.08;;
27746;SDS011;15138;51.012;4.692;2023-05-20T14:30:56;6.15;;;2.25;;
27746;SDS011;15138;51.012;4.692;2023-05-20T14:33:24;2.72;;;1.73;;
27746;SDS011;15138;51.012;4.692;2023-05-20T14:35:53;6.35;;;2.50;;
27746;SDS011;15138;51.012;4.692;2023-05-20T14:38:22;3.03;;;1.80;;
27746;SDS011;15138;51.012;4.692;2023-05-20T14:40:52;3.35;;;1.38;;
27746;SDS011;15138;51.012;4.692;2023-05-20T14:43:20;3.92;;;1.65;;
27746;SDS011;15138;51.012;4.692;2023-05-20T14:45:48;7.32;;;1.65;;
27746;SDS011;15138;51.012;4.692;2023-05-20T14:48:16;2.42;;;1.33;;
27746;SDS011;15138;51.012;4.692;2023-05-20T14:50:44;2.22;;;1.63;;
27746;SDS011;15138;51.012;4.692;2023-05-20T14:53:16;2.38;;;1.70;;
27746;SDS011;15138;51.012;4.692;2023-05-20T14:55:45;2.08;;;1.58;;
27746;SDS011;15138;51.012;4.692;2023-05-20T14:58:13;6.43;;;1.80;;